createdAt,value
2019-05-16T03:06:27.785Z,7.9
2019-05-16T03:07:48.040Z,7.9
2019-05-16T03:08:57.952Z,7.9
2019-05-16T03:09:47.469Z,7.9
2019-05-16T03:10:41.005Z,7.9
2019-05-16T03:11:31.228Z,7.9
2019-05-16T03:12:20.989Z,8
2019-05-16T03:13:11.674Z,8
2019-05-16T03:14:01.613Z,8
2019-05-16T03:14:55.228Z,8
2019-05-16T03:15:41.391Z,8
2019-05-16T03:16:32.614Z,8.1
2019-05-16T03:17:22.253Z,8
2019-05-16T03:18:12.353Z,8.1
2019-05-16T03:19:02.258Z,8.1
2019-05-16T03:19:52.276Z,8.1
2019-05-16T03:20:41.684Z,8.1
2019-05-16T03:21:31.460Z,8
2019-05-16T03:22:22.823Z,8.1
2019-05-16T03:23:12.202Z,8.1
2019-05-16T03:24:02.259Z,8.1
2019-05-16T03:24:52.456Z,8.1
2019-05-16T03:25:42.722Z,8.1
2019-05-16T03:26:32.373Z,8.1
2019-05-16T03:27:22.683Z,8.1
2019-05-16T03:28:12.535Z,8.1
2019-05-16T03:29:02.228Z,8.1
2019-05-16T03:29:51.902Z,8.1
2019-05-16T03:30:46.360Z,8.1
2019-05-16T03:31:35.730Z,8.1
2019-05-16T03:32:25.475Z,8.2
2019-05-16T03:33:48.585Z,8.1
2019-05-16T03:35:26.698Z,8.1
2019-05-16T03:36:17.534Z,8.2
2019-05-16T03:38:06.569Z,8.2
2019-05-16T03:39:32.750Z,8.2
2019-05-16T03:40:22.986Z,8.3
2019-05-16T03:41:13.174Z,8.3
2019-05-16T03:42:02.486Z,8.3
2019-05-16T03:42:53.619Z,8.3
2019-05-16T03:43:42.914Z,8.3
2019-05-16T03:44:33.238Z,8.3
2019-05-16T03:45:22.968Z,8.3
2019-05-16T03:46:13.479Z,8.3
2019-05-16T03:47:02.846Z,8.3
2019-05-16T03:47:53.445Z,8.3
2019-05-16T03:48:43.510Z,8.3
2019-05-16T03:49:33.558Z,8.3
2019-05-16T03:50:23.372Z,8.4
2019-05-16T03:51:13.687Z,8.4
2019-05-16T03:52:03.494Z,8.4
2019-05-16T03:52:53.813Z,8.4
2019-05-16T03:53:43.934Z,8.4
2019-05-16T03:54:33.663Z,8.4
2019-05-16T03:55:24.001Z,8.4
2019-05-16T03:56:14.070Z,8.4
2019-05-16T03:57:04.133Z,8.4
2019-05-16T03:57:54.170Z,8.4
2019-05-16T03:58:44.233Z,8.5
2019-05-16T03:59:34.326Z,8.5
2019-05-16T04:00:24.108Z,8.6
2019-05-16T04:01:14.420Z,8.5
2019-05-16T04:02:04.493Z,8.6
2019-05-16T04:02:54.290Z,8.6
2019-05-16T04:03:44.600Z,8.6
2019-05-16T04:04:34.667Z,8.6
2019-05-16T04:05:24.479Z,8.6
2019-05-16T04:06:14.568Z,8.6
2019-05-16T04:07:04.872Z,8.6
2019-05-16T04:08:26.290Z,8.6
2019-05-16T04:09:34.763Z,8.7
2019-05-16T04:10:25.110Z,8.7
2019-05-16T04:11:23.848Z,8.7
2019-05-16T04:12:55.003Z,8.7
2019-05-16T04:13:45.057Z,8.7
2019-05-16T04:14:35.134Z,8.7
2019-05-16T04:15:25.475Z,8.8
2019-05-16T04:16:15.549Z,8.8
2019-05-16T04:17:05.629Z,8.8
2019-05-16T04:17:55.641Z,8.8
2019-05-16T04:18:45.741Z,8.8
2019-05-16T04:19:35.515Z,8.8
2019-05-16T04:20:25.840Z,8.8
2019-05-16T04:21:22.819Z,8.8
2019-05-16T04:22:55.757Z,8.8
2019-05-16T04:23:45.811Z,8.8
2019-05-16T04:24:35.864Z,8.8
2019-05-16T04:25:26.209Z,8.9
2019-05-16T04:26:16.273Z,8.9
2019-05-16T04:27:05.494Z,8.9
2019-05-16T04:27:56.405Z,8.9
2019-05-16T04:28:46.467Z,8.9
2019-05-16T04:29:36.517Z,8.9
2019-05-16T04:30:26.323Z,8.9
2019-05-16T04:31:16.629Z,9
2019-05-16T04:32:06.700Z,8.9
2019-05-16T04:32:56.750Z,9
2019-05-16T04:33:46.261Z,9
2019-05-16T04:34:36.893Z,9
2019-05-16T04:35:26.939Z,9.1
2019-05-16T04:36:16.450Z,9.1
2019-05-16T04:37:07.055Z,9.1
2019-05-16T04:37:56.868Z,9.1
2019-05-16T04:38:51.584Z,9.1
2019-05-16T04:39:36.966Z,9.2
2019-05-16T04:40:27.030Z,9.2
2019-05-16T04:41:20.698Z,9.2
2019-05-16T04:42:10.808Z,9.3
2019-05-16T04:42:57.201Z,9.3
2019-05-16T04:43:50.256Z,9.3
2019-05-16T04:44:37.330Z,9.4
2019-05-16T04:45:27.400Z,9.4
2019-05-16T04:46:20.840Z,9.4
2019-05-16T04:47:10.734Z,9.5
2019-05-16T04:48:00.875Z,9.5
2019-05-16T04:48:50.478Z,9.6
2019-05-16T04:49:40.953Z,9.6
2019-05-16T04:50:30.957Z,9.6
2019-05-16T04:51:21.576Z,9.6
2019-05-16T04:52:10.957Z,9.7
2019-05-16T04:53:01.800Z,9.8
2019-05-16T04:53:51.518Z,9.8
2019-05-16T04:54:41.469Z,9.8
2019-05-16T04:55:31.980Z,9.9
2019-05-16T04:56:22.091Z,9.9
2019-05-16T04:57:12.238Z,10
2019-05-16T04:58:01.851Z,10.1
2019-05-16T04:58:52.475Z,10.1
2019-05-16T04:59:42.116Z,10.2
2019-05-16T05:00:32.859Z,10.3
2019-05-16T05:01:22.178Z,10.3
2019-05-16T05:02:11.879Z,10.4
2019-05-16T05:03:02.265Z,10.5
2019-05-16T05:04:16.171Z,10.6
2019-05-16T05:05:33.049Z,10.8
2019-05-16T05:06:22.284Z,10.9
2019-05-16T05:07:12.524Z,11
2019-05-16T05:08:02.159Z,11.1
2019-05-16T05:09:04.271Z,11.3
2019-05-16T05:10:32.627Z,11.5
2019-05-16T05:11:22.890Z,11.6
2019-05-16T05:12:12.741Z,11.7
2019-05-16T05:13:03.013Z,11.8
2019-05-16T05:13:52.193Z,11.9
2019-05-16T05:14:42.992Z,11.9
2019-05-16T05:15:32.201Z,12
2019-05-16T05:16:21.569Z,12.1
2019-05-16T05:17:12.246Z,12.2
2019-05-16T05:18:01.886Z,12.3
2019-05-16T05:18:52.579Z,12.4
2019-05-16T05:19:42.862Z,12.4
2019-05-16T05:20:31.953Z,12.6
2019-05-16T05:21:22.236Z,12.7
2019-05-16T05:22:11.973Z,12.8
2019-05-16T05:23:01.400Z,12.9
2019-05-16T05:23:52.394Z,13
2019-05-16T05:24:41.322Z,13.1
2019-05-16T05:25:32.408Z,13.3
2019-05-16T05:26:21.256Z,13.4
2019-05-16T05:27:12.000Z,13.6
2019-05-16T05:28:02.074Z,13.7
2019-05-16T05:28:52.331Z,13.8
2019-05-16T05:29:41.418Z,13.9
2019-05-16T05:30:31.325Z,14.1
2019-05-16T05:31:27.054Z,14.3
2019-05-16T05:32:16.013Z,14.4
2019-05-16T05:33:01.947Z,14.6
2019-05-16T05:33:52.251Z,14.8
2019-05-16T05:34:41.423Z,14.9
2019-05-16T05:35:32.347Z,15.1
2019-05-16T05:36:22.613Z,15.3
2019-05-16T05:37:14.138Z,15.4
2019-05-16T05:38:01.978Z,15.6
2019-05-16T05:39:16.197Z,15.8
2019-05-16T05:40:31.691Z,16.1
2019-05-16T05:41:21.758Z,16.2
2019-05-16T05:42:12.098Z,16.3
2019-05-16T05:43:01.924Z,16.4
2019-05-16T05:43:55.008Z,16.6
2019-05-16T05:44:41.726Z,16.7
2019-05-16T05:45:32.185Z,16.8
2019-05-16T05:46:22.140Z,16.9
2019-05-16T05:47:11.832Z,17.1
2019-05-16T05:48:02.268Z,17.2
2019-05-16T05:48:51.821Z,17.3
2019-05-16T05:49:41.825Z,17.4
2019-05-16T05:50:32.142Z,17.6
2019-05-16T05:51:22.216Z,17.6
2019-05-16T05:52:13.925Z,17.8
2019-05-16T05:53:03.082Z,17.8
2019-05-16T05:53:52.672Z,17.9
2019-05-16T05:54:42.738Z,17.9
2019-05-16T05:55:33.015Z,18
2019-05-16T05:56:22.840Z,18.1
2019-05-16T05:57:12.655Z,18.1
2019-05-16T05:58:03.001Z,18.1
2019-05-16T05:58:53.055Z,18.1
2019-05-16T05:59:43.102Z,18.1
2019-05-16T06:00:32.909Z,18.2
2019-05-16T06:01:22.964Z,18.2
2019-05-16T06:02:13.299Z,18.1
2019-05-16T06:04:27.372Z,18.1
2019-05-16T06:05:19.953Z,18.2
2019-05-16T06:06:07.247Z,18.2
2019-05-16T06:06:57.284Z,18.2
2019-05-16T06:07:47.889Z,18.2
2019-05-16T06:08:37.409Z,18.2
2019-05-16T06:09:34.066Z,18.2
2019-05-16T06:11:09.910Z,18.3
2019-05-16T06:12:00.592Z,18.3
2019-05-16T06:12:50.996Z,18.3
2019-05-16T06:13:40.253Z,18.4
2019-05-16T06:14:31.075Z,18.4
2019-05-16T06:15:17.606Z,18.5
2019-05-16T06:16:10.558Z,18.6
2019-05-16T06:17:51.289Z,18.8
2019-05-16T06:18:41.098Z,18.9
2019-05-16T06:19:31.231Z,19.1
2019-05-16T06:20:21.240Z,19.3
2019-05-16T06:21:11.851Z,19.4
2019-05-16T06:22:01.810Z,19.6
2019-05-16T06:22:51.133Z,19.8
2019-05-16T06:23:41.768Z,19.9
2019-05-16T06:24:31.469Z,20.1
2019-05-16T06:25:24.474Z,20.3
2019-05-16T06:26:12.985Z,20.6
2019-05-16T06:27:01.439Z,20.9
2019-05-16T06:27:52.076Z,21.3
2019-05-16T06:28:41.768Z,21.8
2019-05-16T06:29:31.993Z,22.3
2019-05-16T06:30:22.157Z,22.7
2019-05-16T06:31:15.610Z,23.1
2019-05-16T06:32:01.435Z,23.4
2019-05-16T06:32:51.160Z,23.6
2019-05-16T06:33:42.275Z,23.9
2019-05-16T06:34:31.737Z,24.1
2019-05-16T06:35:25.178Z,24.3
2019-05-16T06:36:12.155Z,24.5
2019-05-16T06:37:01.823Z,24.7
2019-05-16T06:37:51.470Z,24.9
2019-05-16T06:38:42.113Z,25.1
2019-05-16T06:39:46.459Z,25.3
2019-05-16T06:41:11.924Z,25.8
2019-05-16T06:42:01.828Z,25.9
2019-05-16T06:42:52.583Z,26.1
2019-05-16T06:43:41.569Z,26.3
2019-05-16T06:44:32.411Z,26.4
2019-05-16T06:45:22.064Z,26.5
2019-05-16T06:46:12.559Z,26.5
2019-05-16T06:47:23.706Z,26.5
2019-05-16T06:48:41.449Z,26.4
2019-05-16T06:49:31.893Z,26.4
2019-05-16T06:50:22.482Z,26.3
2019-05-16T06:51:12.018Z,26.3
2019-05-16T06:52:00.974Z,26.2
2019-05-16T06:52:51.781Z,26.1
2019-05-16T06:53:41.994Z,26.1
2019-05-16T06:54:31.236Z,26
2019-05-16T06:55:21.744Z,25.9
2019-05-16T06:56:11.995Z,25.9
2019-05-16T06:57:01.601Z,25.9
2019-05-16T06:57:51.943Z,25.8
2019-05-16T06:58:52.928Z,25.8
2019-05-16T07:00:22.581Z,25.8
2019-05-16T07:01:12.081Z,25.8
2019-05-16T07:02:02.020Z,25.8
2019-05-16T07:04:27.590Z,25.8
2019-05-16T07:05:17.672Z,25.9
2019-05-16T07:06:24.109Z,25.9
2019-05-16T07:08:03.867Z,26.2
2019-05-16T07:08:53.939Z,26.3
2019-05-16T07:10:05.345Z,26.4
2019-05-16T07:11:23.350Z,26.7
2019-05-16T07:12:13.606Z,26.9
2019-05-16T07:13:04.256Z,27
2019-05-16T07:13:54.289Z,27.1
2019-05-16T07:14:44.101Z,27.3
2019-05-16T07:15:34.152Z,27.4
2019-05-16T07:16:24.196Z,27.7
2019-05-16T07:18:04.061Z,28
2019-05-16T07:18:54.091Z,28.2
2019-05-16T07:19:44.443Z,28.4
2019-05-16T07:20:34.770Z,28.5
2019-05-16T07:21:24.851Z,28.7
2019-05-16T07:22:14.897Z,28.9
2019-05-16T07:23:04.723Z,29.1
2019-05-16T07:23:54.760Z,29.2
2019-05-16T07:24:45.091Z,29.3
2019-05-16T07:25:34.857Z,29.4
2019-05-16T07:26:25.223Z,29.6
2019-05-16T07:27:15.268Z,29.6
2019-05-16T07:28:05.373Z,29.7
2019-05-16T07:28:55.108Z,29.8
2019-05-16T07:29:45.184Z,29.8
2019-05-16T07:30:35.248Z,29.9
2019-05-16T07:31:25.301Z,29.9
2019-05-16T07:54:14.594Z,32.9
2019-05-16T07:55:05.562Z,33.1
2019-05-16T07:55:54.729Z,33.2
2019-05-16T07:56:45.089Z,33.3
2019-05-16T07:57:35.105Z,33.4
2019-05-16T07:58:25.206Z,33.6
2019-05-16T07:59:15.239Z,33.6
2019-05-16T08:00:05.307Z,33.8
2019-05-16T08:01:13.131Z,34
2019-05-16T08:02:35.234Z,34.3
2019-05-16T08:03:25.562Z,34.5
2019-05-16T08:04:15.646Z,34.6
2019-05-16T08:05:05.393Z,34.8
2019-05-16T08:05:55.769Z,34.8
2019-05-16T08:06:51.219Z,35
2019-05-16T08:07:35.583Z,35.1
2019-05-16T08:08:25.970Z,35.3
2019-05-16T08:09:15.988Z,20.8
2019-05-16T08:10:05.495Z,21.6
2019-05-16T08:10:56.134Z,44.4
2019-05-16T08:11:46.199Z,47.8
2019-05-16T08:12:36.330Z,49.8
2019-05-16T08:13:26.307Z,49.3
2019-05-16T08:14:16.384Z,48.4
2019-05-16T08:15:06.432Z,47.5
2019-05-16T08:15:56.507Z,46.6
2019-05-16T08:16:46.572Z,46
2019-05-16T08:17:36.359Z,45.6
2019-05-16T08:18:26.114Z,45.2
2019-05-16T08:19:16.740Z,44.9
2019-05-16T08:22:24.764Z,44.1
2019-05-16T08:23:14.828Z,43.9
2019-05-16T08:24:15.834Z,43.7
2019-05-16T08:25:44.741Z,43.3
2019-05-16T08:28:42.751Z,43.1
2019-05-16T08:29:42.985Z,42.5
2019-05-16T08:30:33.081Z,42.4
2019-05-16T08:34:44.008Z,45.1
2019-05-16T08:35:33.768Z,45.3
2019-05-16T08:36:24.135Z,45.1
2019-05-16T08:39:32.271Z,45.1
2019-05-16T08:40:33.194Z,50.8
2019-05-16T08:44:22.443Z,51.4
2019-05-16T08:45:13.162Z,50.8
2019-05-16T08:46:01.898Z,50.4
2019-05-16T08:47:06.664Z,50.1
2019-05-16T08:48:32.450Z,49.4
2019-05-16T08:49:22.990Z,49.2
2019-05-16T08:50:16.025Z,48.9
2019-05-16T08:51:03.405Z,48.7
2019-05-16T08:51:53.970Z,48.4
2019-05-16T08:52:44.071Z,48.2
2019-05-16T08:53:33.295Z,47.9
2019-05-16T08:54:22.255Z,47.8
2019-05-16T08:55:14.730Z,47.6
2019-05-16T08:56:03.412Z,47.3
2019-05-16T08:56:52.476Z,47.1
2019-05-16T09:00:23.179Z,46.3
2019-05-16T09:01:15.643Z,46.1
2019-05-16T09:02:04.687Z,45.8
2019-05-16T09:02:53.541Z,45.7
2019-05-16T09:03:43.163Z,45.5
2019-05-16T09:04:35.551Z,45.3
2019-05-16T09:05:24.107Z,45.2
2019-05-16T09:06:12.967Z,45
2019-05-16T09:07:03.539Z,44.9
2019-05-16T09:07:49.724Z,44.8
2019-05-16T09:08:39.756Z,44.7
2019-05-16T09:11:29.152Z,44.6
2019-05-16T09:12:49.401Z,44.5
2019-05-16T09:13:39.484Z,44.6
2019-05-16T09:14:39.759Z,44.7
2019-05-16T09:16:09.659Z,45.3
2019-05-16T09:16:59.989Z,45.7
2019-05-16T09:17:49.788Z,44.4
2019-05-16T09:18:50.506Z,42.7
2019-05-16T09:20:20.248Z,51.3
2019-05-16T09:21:10.081Z,51.6
2019-05-16T09:22:00.374Z,52.9
2019-05-16T09:22:50.169Z,53.8
2019-05-16T09:23:40.508Z,54
2019-05-16T09:24:30.015Z,53.8
2019-05-16T09:25:20.403Z,53.7
2019-05-16T09:26:10.683Z,53.8
2019-05-16T09:27:00.504Z,54.1
2019-05-16T09:28:40.870Z,54.4
2019-05-16T09:29:30.655Z,54.4
2019-05-16T09:30:20.989Z,54.3
2019-05-16T09:31:10.795Z,54.2
2019-05-16T09:32:22.403Z,54.1
2019-05-16T09:33:40.995Z,54
2019-05-16T09:34:31.321Z,54
2019-05-16T09:35:21.375Z,54
2019-05-16T09:36:11.433Z,54
2019-05-16T09:37:03.540Z,54
2019-05-16T09:37:51.282Z,54
2019-05-16T09:38:41.342Z,53.9
2019-05-16T09:39:31.696Z,53.9
2019-05-16T09:40:21.490Z,53.8
2019-05-16T09:41:11.550Z,53.7
2019-05-16T09:42:01.617Z,53.6
2019-05-16T09:42:51.649Z,53.5
2019-05-16T09:43:41.734Z,53.4
2019-05-16T09:44:32.069Z,53.4
2019-05-16T09:45:21.565Z,53.3
2019-05-16T09:46:11.647Z,53.3
2019-05-16T09:47:01.969Z,53.3
2019-05-16T09:47:52.336Z,53.3
2019-05-16T09:48:42.107Z,53.3
2019-05-16T09:49:31.909Z,53.4
2019-05-16T09:50:22.204Z,53.5
2019-05-16T09:51:11.994Z,53.8
2019-05-16T09:52:02.619Z,54
2019-05-16T09:52:52.397Z,54.3
2019-05-16T09:53:42.756Z,54.4
2019-05-16T09:54:32.532Z,54.4
2019-05-16T09:55:22.881Z,54.4
2019-05-16T09:56:12.909Z,54.4
2019-05-16T09:57:02.717Z,54.4
2019-05-16T09:57:59.459Z,54.6
2019-05-16T09:59:33.169Z,54.9
2019-05-16T10:00:23.262Z,54.9
2019-05-16T10:01:13.014Z,54.9
2019-05-16T10:02:03.573Z,54.8
2019-05-16T10:02:53.418Z,54.8
2019-05-16T10:05:28.402Z,54.6
2019-05-16T10:06:20.751Z,54.6
2019-05-16T10:07:08.234Z,54.6
2019-05-16T10:07:58.904Z,54.6
2019-05-16T10:08:47.983Z,54.5
2019-05-16T10:09:51.134Z,54.4
2019-05-16T10:11:19.457Z,54.3
2019-05-16T10:12:19.417Z,54.2
2019-05-16T10:12:58.015Z,54.2
2019-05-16T10:13:48.769Z,54.1
2019-05-16T10:14:39.070Z,54.1
2019-05-16T10:15:28.005Z,54.1
2019-05-16T10:16:18.105Z,54.2
2019-05-16T10:17:09.660Z,54.2
2019-05-16T10:17:59.113Z,54.1
2019-05-16T10:18:49.187Z,54
2019-05-16T10:19:37.990Z,53.9
2019-05-16T10:20:28.980Z,53.9
2019-05-16T10:21:22.011Z,53.9
2019-05-16T10:22:09.005Z,53.8
2019-05-16T10:22:59.591Z,53.6
2019-05-16T10:23:48.582Z,53.4
2019-05-16T10:24:39.121Z,53.3
2019-05-16T10:25:29.168Z,53.3
2019-05-16T10:26:20.472Z,53.2
2019-05-16T10:27:09.097Z,53.1
2019-05-16T10:27:59.190Z,53.1
2019-05-16T10:28:48.939Z,53.1
2019-05-16T10:29:39.419Z,53
2019-05-16T10:30:29.355Z,52.9
2019-05-16T10:31:19.409Z,52.9
2019-05-16T10:32:09.227Z,52.8
2019-05-16T10:33:02.384Z,52.8
2019-05-16T10:33:49.384Z,52.7
2019-05-16T10:34:39.644Z,52.7
2019-05-16T10:35:31.641Z,52.7
2019-05-16T10:36:23.274Z,52.9
2019-05-16T10:37:09.844Z,53.1
2019-05-16T10:37:59.895Z,53.2
2019-05-16T10:38:50.109Z,53.1
2019-05-16T10:39:40.011Z,52.9
2019-05-16T10:40:30.115Z,52.8
2019-05-16T10:41:20.136Z,52.7
2019-05-16T10:42:30.103Z,52.9
2019-05-16T10:43:50.313Z,53.6
2019-05-16T10:44:40.573Z,54.1
2019-05-16T10:45:30.443Z,54.6
2019-05-16T10:46:19.966Z,54.8
2019-05-16T10:47:10.041Z,54.9
2019-05-16T10:48:00.633Z,54.9
2019-05-16T10:48:50.433Z,54.9
2019-05-16T10:49:43.001Z,54.8
2019-05-16T10:50:30.915Z,54.8
2019-05-16T10:51:26.720Z,54.6
2019-05-16T10:52:10.954Z,54.5
2019-05-16T10:54:13.941Z,54.4
2019-05-16T10:55:19.483Z,54.2
2019-05-16T10:56:09.608Z,54.1
2019-05-16T10:56:59.845Z,53.9
2019-05-16T10:57:57.865Z,53.7
2019-05-16T11:00:10.282Z,53.5
2019-05-16T11:02:30.852Z,52.9
2019-05-16T11:03:20.546Z,52.8
2019-05-16T11:04:10.550Z,52.7
2019-05-16T11:07:21.070Z,52.3
2019-05-16T11:08:11.580Z,52.2
2019-05-16T11:10:07.512Z,51.5
2019-05-16T11:11:31.672Z,50.4
2019-05-16T11:12:22.108Z,50
2019-05-16T11:14:01.576Z,49.1
2019-05-16T11:14:51.925Z,48.7
2019-05-16T11:15:41.987Z,48.3
2019-05-16T11:16:32.032Z,47.8
2019-05-16T11:17:21.866Z,47.3
2019-05-16T11:18:12.166Z,46.8
2019-05-16T11:19:28.163Z,46.3
2019-05-16T11:20:50.286Z,45.1
2019-05-16T11:22:22.492Z,43.9
2019-05-16T11:23:12.271Z,43.4
2019-05-16T11:24:02.366Z,42.8
2019-05-16T11:25:42.184Z,41.7
2019-05-16T11:26:32.806Z,41.1
2019-05-16T11:27:22.597Z,40.5
2019-05-16T11:28:12.667Z,40
2019-05-16T11:29:02.711Z,39.4
2019-05-16T11:29:53.038Z,38.9
2019-05-16T11:30:43.127Z,38.4
2019-05-16T11:31:32.901Z,37.9
2019-05-16T11:32:22.961Z,37.4
2019-05-16T11:33:13.293Z,36.9
2019-05-16T11:34:03.363Z,36.4
2019-05-16T11:34:53.419Z,35.9
2019-05-16T11:35:43.204Z,35.6
2019-05-16T11:36:33.293Z,35.1
2019-05-16T11:37:23.603Z,34.7
2019-05-16T11:38:13.446Z,34.3
2019-05-16T11:39:03.453Z,33.9
2019-05-16T11:39:53.529Z,33.5
2019-05-16T11:40:43.591Z,33.2
2019-05-16T11:41:33.920Z,32.9
2019-05-16T11:42:23.476Z,32.6
2019-05-16T11:43:22.875Z,32.3
2019-05-16T11:44:54.175Z,31.8
2019-05-16T11:45:46.693Z,31.4
2019-05-16T11:46:37.211Z,31.2
2019-05-16T11:47:24.127Z,30.9
2019-05-16T11:48:16.873Z,30.8
2019-05-16T11:49:04.253Z,30.5
2019-05-16T11:49:56.918Z,30.3
2019-05-16T11:50:47.583Z,30
2019-05-16T11:51:34.393Z,29.8
2019-05-16T11:52:24.458Z,29.6
2019-05-16T11:53:14.550Z,29.4
2019-05-16T11:54:07.414Z,29.2
2019-05-16T11:54:57.147Z,29
2019-05-16T11:56:02.619Z,28.8
2019-05-16T11:56:36.865Z,28.6
2019-05-16T11:57:25.120Z,28.5
2019-05-16T11:58:17.715Z,28.3
2019-05-16T11:59:07.603Z,28.1
2019-05-16T11:59:57.969Z,28
2019-05-16T12:00:48.757Z,27.9
2019-05-16T12:01:38.324Z,27.7
2019-05-16T12:02:28.762Z,27.6
2019-05-16T12:03:17.898Z,27.4
2019-05-16T14:06:27.035Z,49.3
2019-05-16T14:07:18.732Z,49.2
2019-05-16T14:08:08.148Z,49.1
2019-05-16T14:08:58.039Z,49
2019-05-16T14:09:48.406Z,48.9
2019-05-16T14:10:39.149Z,48.8
2019-05-16T14:11:27.129Z,48.7
2019-05-16T14:12:18.944Z,48.6
2019-05-16T14:13:09.054Z,48.4
2019-05-16T14:13:57.632Z,48.3
2019-05-16T14:14:48.869Z,48.2
2019-05-16T14:15:38.238Z,48.1
2019-05-16T14:16:28.438Z,48
2019-05-16T14:17:19.436Z,47.9
2019-05-16T14:18:09.299Z,47.8
2019-05-16T14:18:58.931Z,47.4
2019-05-16T14:19:49.526Z,47.1
2019-05-16T14:20:39.321Z,44.4
2019-05-16T14:21:27.923Z,43.4
2019-05-16T14:22:18.862Z,42.7
2019-05-16T14:23:09.734Z,42.3
2019-05-16T14:23:58.383Z,41.7
2019-05-16T14:24:49.801Z,41.7
2019-05-16T14:25:38.821Z,41.6
2019-05-16T14:26:28.813Z,41.6
2019-05-16T14:27:18.613Z,41.4
2019-05-16T14:28:09.415Z,41.3
2019-05-16T14:28:59.552Z,41.3
2019-05-16T14:29:49.311Z,41.2
2019-05-16T14:30:38.863Z,41.2
2019-05-16T14:31:29.190Z,41.2
2019-05-16T14:32:21.493Z,41.2
2019-05-16T14:33:18.086Z,41.3
2019-05-16T14:33:59.386Z,41.3
2019-05-16T14:34:53.104Z,41.3
2019-05-16T14:35:39.494Z,41.3
2019-05-16T14:36:29.090Z,41.4
2019-05-16T14:37:19.646Z,41.4
2019-05-16T14:38:09.168Z,41.4
2019-05-16T14:38:59.474Z,41.4
2019-05-16T14:39:50.359Z,41.4
2019-05-16T14:40:39.612Z,41.4
2019-05-16T14:41:30.057Z,41.4
2019-05-16T14:42:20.055Z,41.4
2019-05-16T14:43:10.569Z,41.4
2019-05-16T14:44:00.179Z,41.3
2019-05-16T14:45:14.144Z,41.3
2019-05-16T14:46:30.340Z,41.3
2019-05-16T14:47:20.152Z,41.2
2019-05-16T14:48:10.183Z,41.2
2019-05-16T14:49:00.232Z,41.1
2019-05-16T14:49:50.736Z,41.1
2019-05-16T14:50:40.352Z,41.1
2019-05-16T14:51:33.475Z,41.1
2019-05-16T14:52:20.509Z,41
2019-05-16T14:53:10.823Z,40.9
2019-05-16T14:54:00.906Z,40.9
2019-05-16T14:54:50.666Z,40.9
2019-05-16T14:55:41.012Z,40.8
2019-05-16T14:56:31.124Z,40.8
2019-05-16T14:57:20.870Z,40.8
2019-05-16T14:58:11.186Z,40.7
2019-05-16T14:59:00.995Z,40.7
2019-05-16T14:59:51.039Z,40.6
2019-05-16T15:00:41.128Z,40.6
2019-05-16T15:01:31.218Z,40.6
2019-05-16T15:02:21.526Z,40.5
2019-05-16T15:03:11.575Z,40.5
2019-05-16T15:04:01.384Z,40.4
2019-05-16T15:04:51.692Z,40.4
2019-05-16T15:05:44.244Z,40.4
2019-05-16T15:06:31.833Z,40.4
2019-05-16T15:07:21.646Z,40.3
2019-05-16T15:08:12.173Z,40.3
2019-05-16T15:09:02.027Z,40.2
2019-05-16T15:09:51.836Z,40.2
2019-05-16T15:10:42.157Z,40.1
2019-05-16T15:11:31.921Z,40.1
2019-05-16T15:12:22.004Z,40.1
2019-05-16T15:13:12.056Z,40.1
2019-05-16T15:14:02.416Z,40.1
2019-05-16T15:14:52.188Z,40.1
2019-05-16T15:16:32.322Z,40.2
2019-05-16T15:17:22.646Z,40.2
2019-05-16T15:18:12.434Z,40.3
2019-05-16T15:19:02.778Z,40.3
2019-05-16T15:19:52.293Z,40.3
2019-05-16T15:20:42.900Z,40.3
2019-05-16T15:21:32.413Z,40.3
2019-05-16T15:22:23.020Z,40.4
2019-05-16T15:23:13.090Z,40.4
2019-05-16T15:24:03.152Z,40.4
2019-05-16T15:24:52.662Z,40.5
2019-05-16T15:25:43.013Z,40.5
2019-05-16T15:26:33.062Z,40.6
2019-05-16T15:27:23.397Z,40.6
2019-05-16T15:28:13.455Z,40.6
2019-05-16T15:29:03.628Z,40.6
2019-05-16T15:29:53.341Z,40.6
2019-05-16T15:30:43.379Z,40.6
2019-05-16T15:31:33.726Z,40.6
2019-05-16T15:32:23.797Z,40.6
2019-05-16T15:33:13.863Z,40.5
2019-05-16T15:34:03.918Z,40.4
2019-05-16T15:34:56.988Z,40.4
2019-05-16T15:35:43.825Z,40.4
2019-05-16T15:36:33.552Z,40.3
2019-05-16T15:37:24.167Z,40.3
2019-05-16T15:38:16.524Z,40.3
2019-05-16T15:39:07.818Z,40.2
2019-05-16T15:39:55.902Z,40.1
2019-05-16T15:40:44.407Z,40.1
2019-05-16T15:41:36.538Z,40.1
2019-05-16T15:42:24.536Z,40
2019-05-16T15:43:18.832Z,39.9
2019-05-16T15:44:07.546Z,39.9
2019-05-16T15:44:54.178Z,39.9
2019-05-16T15:45:54.112Z,39.9
2019-05-16T15:47:27.607Z,39.8
2019-05-16T15:48:17.610Z,39.8
2019-05-16T15:49:11.038Z,39.8
2019-05-16T15:49:59.746Z,39.8
2019-05-16T15:50:44.898Z,39.7
2019-05-16T15:51:37.349Z,39.6
2019-05-16T15:52:28.026Z,39.6
2019-05-16T15:53:18.132Z,39.6
2019-05-16T15:54:07.700Z,39.6
2019-05-16T15:54:55.201Z,39.5
2019-05-16T15:55:48.001Z,39.4
2019-05-16T15:56:37.815Z,39.4
2019-05-16T15:57:31.941Z,39.4
2019-05-16T15:58:19.274Z,39.3
2019-05-16T15:59:11.041Z,39.3
2019-05-16T15:59:58.549Z,39.3
2019-05-16T16:00:49.625Z,39.1
2019-05-16T16:01:38.899Z,39.1
2019-05-16T16:02:28.668Z,39.1
2019-05-16T16:03:18.500Z,39
2019-05-16T16:04:08.553Z,38.9
2019-05-16T16:06:29.020Z,38.8
2019-05-16T16:07:19.658Z,38.7
2019-05-16T16:08:08.192Z,38.6
2019-05-16T16:08:57.160Z,38.6
2019-05-16T16:09:48.575Z,38.5
2019-05-16T16:10:39.407Z,38.4
2019-05-16T16:11:28.800Z,38.4
2019-05-16T16:12:18.492Z,38.3
2019-05-16T16:13:08.369Z,38.3
2019-05-16T16:13:58.932Z,38.2
2019-05-16T16:14:48.337Z,38.1
2019-05-16T16:15:58.141Z,38
2019-05-16T16:17:19.180Z,37.9
2019-05-16T16:18:10.302Z,37.9
2019-05-16T16:18:58.972Z,37.8
2019-05-16T16:19:48.537Z,37.7
2019-05-16T16:20:37.994Z,37.6
2019-05-16T16:21:28.712Z,37.4
2019-05-16T16:22:19.270Z,37.3
2019-05-16T16:23:08.254Z,36.9
2019-05-16T16:23:58.863Z,36.8
2019-05-16T16:24:49.411Z,36.6
2019-05-16T16:25:38.706Z,36.3
2019-05-16T16:26:28.764Z,36.1
2019-05-16T16:27:18.489Z,35.8
2019-05-16T16:28:09.043Z,35.6
2019-05-16T16:28:58.891Z,35.3
2019-05-16T16:29:49.614Z,35.1
2019-05-16T16:30:38.877Z,34.8
2019-05-16T16:31:29.091Z,34.6
2019-05-16T16:32:19.149Z,34.3
2019-05-16T16:33:30.554Z,34.1
2019-05-16T16:34:50.555Z,33.6
2019-05-16T16:35:39.665Z,33.4
2019-05-16T16:36:29.443Z,33.3
2019-05-16T16:37:19.531Z,33.1
2019-05-16T16:38:09.574Z,32.9
2019-05-16T16:38:59.166Z,32.7
2019-05-16T16:39:49.229Z,32.5
2019-05-16T16:40:39.763Z,32.3
2019-05-16T16:41:29.128Z,32.1
2019-05-16T16:42:19.415Z,31.9
2019-05-16T16:43:09.482Z,31.8
2019-05-16T16:43:59.532Z,31.6
2019-05-16T16:44:49.598Z,31.4
2019-05-16T16:45:39.669Z,31.3
2019-05-16T16:46:29.728Z,31.1
2019-05-16T16:47:19.517Z,30.9
2019-05-16T16:48:09.853Z,30.8
2019-05-16T16:48:59.912Z,30.6
2019-05-16T16:49:50.494Z,30.4
2019-05-16T16:50:39.772Z,30.3
2019-05-16T16:51:30.604Z,30.1
2019-05-16T16:52:20.650Z,29.9
2019-05-16T16:53:10.436Z,29.8
2019-05-16T16:54:00.774Z,29.6
2019-05-16T16:54:50.542Z,29.4
2019-05-16T16:55:40.357Z,29.2
2019-05-16T16:56:30.950Z,29.1
2019-05-16T16:57:20.786Z,28.9
2019-05-16T16:58:11.294Z,28.7
2019-05-16T16:59:01.170Z,28.5
2019-05-16T16:59:50.928Z,28.4
2019-05-16T17:00:41.291Z,28.2
2019-05-16T17:01:31.333Z,28
2019-05-16T17:02:21.414Z,27.9
2019-05-16T17:03:12.668Z,27.7
2019-05-16T17:04:01.520Z,27.6
2019-05-16T17:04:53.202Z,27.4
2019-05-16T17:06:31.732Z,27.1
2019-05-16T17:07:21.777Z,26.9
2019-05-16T17:08:11.836Z,26.8
2019-05-16T17:09:01.904Z,26.6
2019-05-16T17:09:51.966Z,26.5
2019-05-16T17:10:42.023Z,26.4
2019-05-16T17:11:32.082Z,26.3
2019-05-16T17:12:22.172Z,26.1
2019-05-16T17:13:12.223Z,25.9
2019-05-16T17:14:02.285Z,25.8
2019-05-16T17:14:52.316Z,25.7
2019-05-16T17:15:43.769Z,25.6
2019-05-16T17:16:32.471Z,25.4
2019-05-16T17:17:22.229Z,25.3
2019-05-16T17:18:12.586Z,25.1
2019-05-16T17:19:02.644Z,25
2019-05-16T17:19:52.751Z,24.9
2019-05-16T17:20:42.221Z,24.8
2019-05-16T17:21:32.829Z,24.6
2019-05-16T17:22:22.942Z,24.5
2019-05-16T17:23:12.955Z,24.4
2019-05-16T17:24:03.018Z,24.3
2019-05-16T17:24:53.073Z,24.1
2019-05-16T17:25:43.142Z,24
2019-05-16T17:26:32.933Z,23.9
2019-05-16T17:27:23.266Z,23.7
2019-05-16T17:28:13.313Z,23.6
2019-05-16T17:29:03.479Z,23.5
2019-05-16T17:29:53.468Z,23.4
2019-05-16T17:30:43.228Z,23.2
2019-05-16T17:31:33.578Z,23.1
2019-05-16T17:32:23.636Z,22.9
2019-05-16T17:33:13.490Z,22.8
2019-05-16T17:34:03.946Z,22.7
2019-05-16T17:34:53.555Z,22.6
2019-05-16T17:35:43.974Z,22.4
2019-05-16T17:36:33.960Z,22.3
2019-05-16T17:37:26.488Z,22.1
2019-05-16T17:38:14.087Z,22
2019-05-16T17:39:03.856Z,21.9
2019-05-16T17:39:54.198Z,21.8
2019-05-16T17:40:46.953Z,21.6
2019-05-16T17:41:34.047Z,21.5
2019-05-16T17:42:24.395Z,21.4
2019-05-16T17:43:16.890Z,21.2
2019-05-16T17:44:56.439Z,21
2019-05-16T17:45:46.769Z,20.9
2019-05-16T17:46:41.969Z,20.8
2019-05-16T17:47:26.713Z,20.6
2019-05-16T17:48:17.275Z,20.5
2019-05-16T17:49:07.229Z,20.4
2019-05-16T17:49:54.676Z,20.3